createdAt,value
2022-10-19T00:02:08.608Z,95.10
2022-10-19T00:04:35.350Z,95.00
2022-10-19T00:07:01.967Z,95.00
2022-10-19T00:09:29.215Z,95.00
2022-10-19T00:11:55.813Z,95.00
2022-10-19T00:14:23.555Z,95.00
2022-10-19T00:16:51.088Z,94.90
2022-10-19T00:19:25.540Z,95.00
2022-10-19T00:21:52.543Z,95.00
2022-10-19T00:24:19.400Z,95.00
2022-10-19T00:26:45.952Z,95.00
2022-10-19T00:29:13.778Z,95.00
2022-10-19T00:31:40.698Z,95.00
2022-10-19T00:34:07.329Z,95.00
2022-10-19T00:36:35.467Z,95.00
2022-10-19T00:39:03.277Z,95.00
2022-10-19T00:41:31.633Z,95.00
2022-10-19T00:44:01.216Z,95.00
2022-10-19T00:46:29.249Z,94.90
2022-10-19T00:49:01.102Z,95.00
2022-10-19T00:51:28.857Z,95.00
2022-10-19T00:53:56.154Z,94.90
2022-10-19T00:56:23.031Z,94.90
2022-10-19T00:58:49.733Z,94.90
2022-10-19T01:01:17.298Z,95.00
2022-10-19T01:03:44.638Z,95.00
2022-10-19T01:06:13.538Z,95.00
2022-10-19T01:08:40.338Z,95.00
2022-10-19T01:11:06.956Z,95.00
2022-10-19T01:13:33.530Z,95.00
2022-10-19T01:16:12.569Z,95.00
2022-10-19T01:18:40.229Z,95.00
2022-10-19T01:21:14.550Z,95.00
2022-10-19T01:23:41.156Z,95.00
2022-10-19T01:26:10.438Z,94.90
2022-10-19T01:28:36.978Z,94.90
2022-10-19T01:31:22.359Z,94.90
2022-10-19T01:34:04.850Z,94.90
2022-10-19T01:36:34.407Z,94.80
2022-10-19T01:39:05.548Z,94.80
2022-10-19T01:41:38.026Z,94.80
2022-10-19T01:44:36.822Z,94.80
2022-10-19T01:47:05.982Z,94.70
2022-10-19T01:49:35.102Z,94.70
2022-10-19T01:52:04.659Z,94.70
2022-10-19T01:54:34.098Z,94.70
2022-10-19T01:57:01.718Z,94.70
2022-10-19T01:59:28.737Z,94.70
2022-10-19T02:01:55.868Z,94.70
2022-10-19T02:04:23.655Z,94.70
2022-10-19T02:06:51.808Z,94.70
2022-10-19T02:09:18.511Z,94.70
2022-10-19T02:11:49.631Z,94.70
2022-10-19T02:14:19.511Z,94.70
2022-10-19T02:16:52.021Z,94.70
2022-10-19T02:19:20.576Z,94.70
2022-10-19T02:21:47.175Z,94.80
2022-10-19T02:24:13.751Z,94.80
2022-10-19T02:26:40.635Z,94.80
2022-10-19T02:29:07.900Z,94.80
2022-10-19T02:31:34.523Z,94.90
2022-10-19T02:34:01.288Z,94.90
2022-10-19T02:36:28.036Z,94.90
2022-10-19T02:38:54.722Z,94.80
2022-10-19T02:41:27.451Z,94.90
2022-10-19T02:44:01.017Z,94.90
2022-10-19T02:49:08.103Z,94.90
2022-10-19T02:51:36.216Z,94.90
2022-10-19T02:54:05.224Z,94.80
2022-10-19T02:56:32.582Z,94.90
2022-10-19T02:58:59.150Z,94.90
2022-10-19T03:01:25.747Z,95.00
2022-10-19T03:03:52.323Z,95.00
2022-10-19T03:06:18.987Z,95.10
2022-10-19T03:08:45.662Z,95.10
2022-10-19T03:11:12.226Z,95.10
2022-10-19T03:13:38.866Z,95.10
2022-10-19T03:16:06.702Z,95.10
2022-10-19T03:18:33.308Z,95.10
2022-10-19T03:21:04.271Z,95.10
2022-10-19T03:23:30.918Z,95.50
2022-10-19T03:25:57.565Z,95.20
2022-10-19T03:28:24.192Z,95.20
2022-10-19T03:30:50.806Z,95.20
2022-10-19T03:33:17.412Z,95.30
2022-10-19T03:35:44.146Z,95.30
2022-10-19T03:38:11.328Z,95.00
2022-10-19T03:40:38.123Z,95.10
2022-10-19T03:43:04.702Z,95.20
2022-10-19T03:45:31.315Z,95.30
2022-10-19T03:47:57.890Z,95.40
2022-10-19T03:50:24.594Z,95.40
2022-10-19T03:52:51.236Z,95.80
2022-10-19T03:55:17.880Z,95.50
2022-10-19T03:57:44.448Z,95.50
2022-10-19T04:00:11.411Z,95.50
2022-10-19T04:02:40.693Z,95.50
2022-10-19T04:05:07.507Z,95.50
2022-10-19T04:07:34.303Z,95.60
2022-10-19T04:10:01.066Z,95.60
2022-10-19T04:12:27.627Z,95.60
2022-10-19T04:14:57.184Z,95.60
2022-10-19T04:17:25.103Z,95.50
2022-10-19T04:19:51.679Z,95.60
2022-10-19T04:22:18.285Z,95.60
2022-10-19T04:24:44.902Z,95.60
2022-10-19T04:27:11.519Z,95.60
2022-10-19T04:29:38.158Z,95.70
2022-10-19T04:32:04.816Z,95.70
2022-10-19T04:34:32.570Z,95.70
2022-10-19T04:37:01.267Z,95.70
2022-10-19T04:39:27.883Z,95.70
2022-10-19T04:41:54.468Z,95.70
2022-10-19T04:44:21.198Z,95.80
2022-10-19T04:46:47.793Z,95.70
2022-10-19T04:49:16.530Z,95.80
2022-10-19T04:51:46.158Z,95.80
2022-10-19T04:54:12.772Z,95.80
2022-10-19T04:56:39.768Z,95.80
2022-10-19T04:59:06.356Z,95.80
2022-10-19T05:01:33.020Z,95.80
2022-10-19T05:04:00.816Z,95.80
2022-10-19T05:06:27.862Z,95.90
2022-10-19T05:08:54.481Z,95.90
2022-10-19T05:11:21.230Z,96.00
2022-10-19T05:13:47.849Z,96.00
2022-10-19T05:16:15.756Z,96.00
2022-10-19T05:18:42.665Z,96.00
2022-10-19T05:21:10.811Z,96.10
2022-10-19T05:23:37.789Z,96.20
2022-10-19T05:26:08.659Z,96.10
2022-10-19T05:28:35.626Z,96.20
2022-10-19T05:31:09.369Z,96.20
2022-10-19T05:33:36.451Z,96.20
2022-10-19T05:36:13.127Z,96.30
2022-10-19T05:38:39.725Z,96.30
2022-10-19T05:41:06.461Z,96.30
2022-10-19T05:43:33.045Z,96.30
2022-10-19T05:46:06.465Z,96.30
2022-10-19T05:48:33.912Z,96.30
2022-10-19T05:51:01.588Z,96.30
2022-10-19T05:53:29.148Z,96.40
2022-10-19T05:55:55.806Z,96.40
2022-10-19T05:58:22.520Z,96.40
2022-10-19T06:00:56.328Z,96.50
2022-10-19T06:03:23.439Z,96.50
2022-10-19T06:05:50.154Z,96.50
2022-10-19T06:08:17.579Z,96.50
2022-10-19T06:10:44.672Z,96.50
2022-10-19T06:13:12.201Z,96.50
2022-10-19T06:15:40.468Z,96.50
2022-10-19T06:18:07.505Z,96.60
2022-10-19T06:20:35.156Z,96.60
2022-10-19T06:23:02.474Z,96.60
2022-10-19T06:25:32.823Z,96.60
2022-10-19T06:27:59.592Z,96.60
2022-10-19T06:30:26.314Z,96.60
2022-10-19T06:32:53.127Z,96.60
2022-10-19T06:35:19.843Z,96.70
2022-10-19T06:37:46.483Z,96.70
2022-10-19T06:40:13.232Z,96.70
2022-10-19T06:42:39.899Z,96.80
2022-10-19T06:45:07.241Z,96.80
2022-10-19T06:47:34.515Z,96.80
2022-10-19T06:50:01.866Z,96.90
2022-10-19T06:52:28.466Z,96.90
2022-10-19T06:54:55.034Z,96.90
2022-10-19T06:57:21.670Z,96.90
2022-10-19T06:59:51.402Z,97.00
2022-10-19T07:02:19.631Z,97.00
2022-10-19T07:04:46.215Z,97.10
2022-10-19T07:07:12.849Z,97.10
2022-10-19T07:09:39.446Z,97.10
2022-10-19T07:12:06.144Z,96.90
2022-10-19T07:14:38.512Z,97.10
2022-10-19T07:17:05.914Z,97.20
2022-10-19T07:19:32.978Z,97.20
2022-10-19T07:21:59.985Z,97.30
2022-10-19T07:24:27.001Z,97.30
2022-10-19T07:26:53.928Z,97.40
2022-10-19T07:29:20.956Z,97.50
2022-10-19T07:31:47.874Z,97.50
2022-10-19T07:34:14.848Z,97.60
2022-10-19T07:36:45.207Z,97.60
2022-10-19T07:39:12.797Z,97.70
2022-10-19T07:41:39.878Z,97.80
2022-10-19T07:44:08.198Z,97.80
2022-10-19T07:46:37.324Z,97.80
2022-10-19T07:49:06.570Z,97.90
2022-10-19T07:51:35.632Z,98.00
2022-10-19T07:54:02.996Z,98.30
2022-10-19T07:56:30.298Z,98.10
2022-10-19T07:58:57.859Z,98.20
2022-10-19T08:01:26.007Z,98.30
2022-10-19T08:06:40.760Z,98.70
2022-10-19T08:09:07.845Z,98.80
2022-10-19T08:11:35.283Z,98.80
2022-10-19T08:14:05.256Z,98.90
2022-10-19T08:16:44.223Z,99.00
2022-10-19T08:19:12.497Z,99.00
2022-10-19T08:21:40.504Z,99.00
2022-10-19T08:24:08.265Z,99.10
2022-10-19T08:26:36.749Z,99.20
2022-10-19T08:29:10.136Z,99.30
2022-10-19T08:31:37.466Z,99.40
2022-10-19T08:34:04.740Z,99.40
2022-10-19T08:36:32.680Z,99.60
2022-10-19T08:38:59.607Z,99.70
2022-10-19T08:41:32.870Z,99.60
2022-10-19T08:44:07.738Z,99.80
2022-10-19T08:46:36.920Z,99.80
2022-10-19T08:49:03.948Z,99.90
2022-10-19T08:51:35.567Z,99.90
2022-10-19T08:54:04.993Z,99.90
2022-10-19T08:56:50.623Z,99.90
2022-10-19T08:59:18.743Z,99.90
2022-10-19T09:02:04.821Z,99.90
2022-10-19T09:04:42.701Z,99.90
2022-10-19T09:07:09.658Z,99.90
2022-10-19T09:09:41.821Z,99.90
2022-10-19T09:12:10.284Z,99.90
2022-10-19T09:15:03.571Z,99.90
2022-10-19T09:17:31.243Z,99.90
2022-10-19T09:20:01.697Z,99.90
2022-10-19T09:22:35.098Z,99.90
2022-10-19T09:25:08.580Z,99.90
2022-10-19T09:27:37.529Z,99.90
2022-10-19T09:30:15.805Z,99.90
2022-10-19T09:32:42.920Z,99.90
2022-10-19T09:35:22.556Z,99.90
2022-10-19T09:37:51.165Z,99.90
2022-10-19T09:40:20.335Z,99.90
2022-10-19T09:42:51.137Z,99.90
2022-10-19T09:45:26.208Z,99.90
2022-10-19T09:47:53.932Z,99.90
2022-10-19T09:50:25.673Z,99.80
2022-10-19T09:52:56.112Z,99.90
2022-10-19T09:55:41.442Z,99.80
2022-10-19T09:58:14.581Z,99.50
2022-10-19T10:00:42.845Z,99.30
2022-10-19T10:03:22.998Z,99.30
2022-10-19T10:05:50.190Z,99.00
2022-10-19T10:08:18.865Z,98.90
2022-10-19T10:10:47.170Z,98.70
2022-10-19T10:13:18.533Z,98.70
2022-10-19T10:15:48.984Z,98.10
2022-10-19T10:18:17.124Z,97.40
2022-10-19T10:21:03.908Z,98.00
2022-10-19T10:23:36.395Z,97.80
2022-10-19T10:26:04.072Z,97.70
2022-10-19T10:28:31.731Z,97.40
2022-10-19T10:31:03.238Z,97.10
2022-10-19T10:33:44.142Z,97.00
2022-10-19T10:36:12.365Z,96.30
2022-10-19T10:38:41.384Z,96.60
2022-10-19T10:41:18.908Z,96.50
2022-10-19T10:44:07.049Z,96.00
2022-10-19T10:46:35.757Z,96.10
2022-10-19T10:49:04.134Z,95.40
2022-10-19T10:51:34.123Z,95.30
2022-10-19T10:54:10.333Z,95.30
2022-10-19T10:56:40.676Z,95.30
2022-10-19T10:59:14.145Z,95.30
2022-10-19T11:01:42.884Z,95.10
2022-10-19T11:04:16.660Z,94.60
2022-10-19T11:07:06.807Z,94.90
2022-10-19T11:09:39.424Z,95.00
2022-10-19T11:12:10.417Z,94.90
2022-10-19T11:14:46.587Z,94.80
2022-10-19T11:17:24.182Z,94.90
2022-10-19T11:19:51.518Z,94.70
2022-10-19T11:22:26.365Z,94.60
2022-10-19T11:25:03.559Z,94.30
2022-10-19T11:27:42.697Z,94.40
2022-10-19T11:30:14.279Z,94.70
2022-10-19T11:32:59.635Z,94.30
2022-10-19T11:35:29.431Z,93.70
2022-10-19T11:38:18.003Z,93.70
2022-10-19T11:41:12.888Z,93.70
2022-10-19T11:43:39.728Z,93.70
2022-10-19T11:46:15.885Z,94.00
2022-10-19T11:48:54.726Z,93.60
2022-10-19T11:51:33.333Z,93.70
2022-10-19T11:54:00.223Z,93.60
2022-10-19T11:56:39.207Z,93.40
2022-10-19T11:59:37.889Z,93.20
2022-10-19T12:02:11.167Z,92.10
2022-10-19T12:04:40.931Z,91.70
2022-10-19T12:07:26.745Z,90.40
2022-10-19T12:10:12.468Z,91.30
2022-10-19T12:12:42.723Z,91.40
2022-10-19T12:15:23.873Z,91.00
2022-10-19T12:17:52.820Z,90.60
2022-10-19T12:20:22.655Z,87.60
2022-10-19T12:22:50.211Z,87.00
2022-10-19T12:25:17.563Z,87.60
2022-10-19T12:27:47.721Z,90.00
2022-10-19T12:30:14.744Z,86.50
2022-10-19T12:32:58.303Z,89.90
2022-10-19T12:35:28.149Z,87.10
2022-10-19T12:38:03.594Z,84.20
2022-10-19T12:40:43.802Z,80.70
2022-10-19T12:43:13.850Z,73.70
2022-10-19T12:45:44.136Z,66.90
2022-10-19T12:48:14.428Z,60.70
2022-10-19T12:50:50.297Z,55.10
2022-10-19T12:53:32.183Z,50.80
2022-10-19T12:56:19.003Z,46.80
2022-10-19T12:58:48.569Z,43.80
2022-10-19T13:01:18.346Z,42.30
2022-10-19T13:03:46.904Z,39.10
2022-10-19T13:06:17.506Z,38.00
2022-10-19T13:08:48.736Z,36.90
2022-10-19T13:11:15.860Z,36.80
2022-10-19T13:13:51.958Z,35.40
2022-10-19T13:16:36.969Z,34.10
2022-10-19T13:19:12.660Z,33.10
2022-10-19T13:21:54.653Z,32.30
2022-10-19T13:24:24.286Z,31.40
2022-10-19T13:27:20.314Z,30.90
2022-10-19T13:29:46.894Z,30.40
2022-10-19T13:32:33.633Z,29.90
2022-10-19T13:35:19.166Z,29.80
2022-10-19T13:37:45.803Z,29.20
2022-10-19T13:40:23.737Z,29.10
2022-10-19T13:42:57.612Z,28.60
2022-10-19T13:45:24.574Z,28.40
2022-10-19T13:47:54.919Z,28.50
2022-10-19T13:50:24.545Z,28.40
2022-10-19T13:52:57.187Z,28.40
2022-10-19T13:55:29.969Z,28.10
2022-10-19T13:58:14.863Z,28.10
2022-10-19T14:00:47.523Z,27.90
2022-10-19T14:03:26.492Z,27.80
2022-10-19T14:06:03.522Z,27.80
2022-10-19T14:08:35.924Z,27.10
2022-10-19T14:11:04.040Z,27.70
2022-10-19T14:13:31.319Z,27.40
2022-10-19T14:16:00.116Z,27.40
2022-10-19T14:18:31.918Z,27.30
2022-10-19T14:20:59.718Z,27.30
2022-10-19T14:23:34.167Z,27.40
2022-10-19T14:26:05.262Z,27.60
2022-10-19T14:28:32.351Z,27.70
2022-10-19T14:31:00.370Z,27.90
2022-10-19T14:33:28.199Z,28.30
2022-10-19T14:35:55.198Z,28.30
2022-10-19T14:38:25.658Z,28.30
2022-10-19T14:40:52.259Z,28.40
2022-10-19T14:43:20.988Z,28.50
2022-10-19T14:46:06.401Z,28.60
2022-10-19T14:48:33.992Z,28.60
2022-10-19T14:51:00.676Z,28.50
2022-10-19T14:53:27.298Z,28.60
2022-10-19T14:55:55.411Z,28.90
2022-10-19T14:58:23.618Z,29.30
2022-10-19T15:00:51.271Z,29.40
2022-10-19T15:03:21.990Z,29.90
2022-10-19T15:05:51.669Z,30.60
2022-10-19T15:08:30.274Z,31.50
2022-10-19T15:10:57.348Z,33.10
2022-10-19T15:13:24.072Z,34.70
2022-10-19T15:15:54.245Z,35.60
2022-10-19T15:18:43.851Z,37.00
2022-10-19T15:21:13.621Z,38.40
2022-10-19T15:23:50.244Z,39.30
2022-10-19T15:26:19.927Z,40.20
2022-10-19T15:28:47.147Z,41.10
2022-10-19T15:31:13.705Z,42.50
2022-10-19T15:33:43.390Z,42.70
2022-10-19T15:36:16.974Z,43.60
2022-10-19T15:38:46.820Z,44.60
2022-10-19T15:41:33.664Z,45.40
2022-10-19T15:44:04.020Z,46.30
2022-10-19T15:46:48.807Z,47.20
2022-10-19T15:49:15.441Z,47.30
2022-10-19T15:51:48.588Z,48.10
2022-10-19T15:54:17.072Z,48.50
2022-10-19T15:56:50.236Z,49.20
2022-10-19T15:59:18.251Z,50.20
2022-10-19T16:01:45.143Z,51.10
2022-10-19T16:04:11.839Z,51.70
2022-10-19T16:06:39.701Z,52.40
2022-10-19T16:09:06.784Z,53.00
2022-10-19T16:11:35.205Z,53.60
2022-10-19T16:14:01.916Z,54.20
2022-10-19T16:16:31.288Z,54.80
2022-10-19T16:18:58.292Z,55.20
2022-10-19T16:21:27.162Z,55.90
2022-10-19T16:23:53.815Z,56.50
2022-10-19T16:26:20.649Z,57.20
2022-10-19T16:28:48.627Z,57.70
2022-10-19T16:31:15.794Z,58.50
2022-10-19T16:33:42.431Z,59.30
2022-10-19T16:36:09.534Z,59.80
2022-10-19T16:38:36.424Z,60.40
2022-10-19T16:41:04.717Z,61.10
2022-10-19T16:43:32.152Z,61.80
2022-10-19T16:45:58.782Z,62.70
2022-10-19T16:48:25.524Z,63.50
2022-10-19T16:51:16.951Z,64.20
2022-10-19T16:53:43.551Z,64.80
2022-10-19T16:56:12.278Z,65.40
2022-10-19T16:58:39.388Z,65.80
2022-10-19T17:01:07.048Z,66.40
2022-10-19T17:03:33.742Z,66.80
2022-10-19T17:06:06.992Z,67.30
2022-10-19T17:09:02.360Z,67.70
2022-10-19T17:11:25.343Z,67.90
2022-10-19T17:13:53.613Z,68.20
2022-10-19T17:16:20.746Z,68.30
2022-10-19T17:18:47.376Z,68.50
2022-10-19T17:21:24.331Z,68.90
2022-10-19T17:23:51.852Z,69.30
2022-10-19T17:26:18.508Z,69.80
2022-10-19T17:28:45.199Z,70.30
2022-10-19T17:31:13.118Z,70.60
2022-10-19T17:33:40.224Z,71.00
2022-10-19T17:36:08.170Z,71.20
2022-10-19T17:38:35.058Z,71.50
2022-10-19T17:41:03.202Z,71.90
2022-10-19T17:43:29.900Z,72.10
2022-10-19T17:46:00.934Z,72.50
2022-10-19T17:48:27.555Z,72.80
2022-10-19T17:51:01.239Z,73.00
2022-10-19T17:53:28.360Z,73.10
2022-10-19T17:55:55.048Z,73.50
2022-10-19T17:58:22.012Z,73.80
2022-10-19T18:00:52.627Z,74.10
2022-10-19T18:03:19.262Z,74.50
2022-10-19T18:05:55.008Z,74.90
2022-10-19T18:08:21.640Z,75.00
2022-10-19T18:10:48.503Z,75.40
2022-10-19T18:13:15.463Z,75.70
2022-10-19T18:15:42.445Z,75.90
2022-10-19T18:18:09.049Z,76.10
2022-10-19T18:20:38.801Z,76.30
2022-10-19T18:23:06.747Z,76.30
2022-10-19T18:25:53.530Z,76.70
2022-10-19T18:28:20.983Z,77.00
2022-10-19T18:30:47.840Z,77.10
2022-10-19T18:33:14.889Z,78.40
2022-10-19T18:35:41.704Z,77.20
2022-10-19T18:38:08.813Z,77.60
2022-10-19T18:40:36.986Z,77.60
2022-10-19T18:43:04.321Z,78.10
2022-10-19T18:45:31.615Z,78.00
2022-10-19T18:47:58.431Z,78.10
2022-10-19T18:50:25.296Z,78.50
2022-10-19T18:52:51.996Z,78.80
2022-10-19T18:55:18.754Z,79.10
2022-10-19T18:57:45.399Z,79.40
2022-10-19T19:00:12.330Z,80.10
2022-10-19T19:02:46.401Z,80.50
2022-10-19T19:05:14.003Z,80.30
2022-10-19T19:07:40.789Z,80.00
2022-10-19T19:10:07.771Z,80.30
2022-10-19T19:12:34.685Z,80.40
2022-10-19T19:15:01.473Z,80.80
2022-10-19T19:17:28.195Z,80.80
2022-10-19T19:19:54.825Z,81.00
2022-10-19T19:22:21.459Z,81.10
2022-10-19T19:24:49.661Z,81.40
2022-10-19T19:27:16.364Z,81.60
2022-10-19T19:29:43.267Z,81.80
2022-10-19T19:32:09.981Z,82.00
2022-10-19T19:34:36.982Z,82.70
2022-10-19T19:37:07.315Z,82.40
2022-10-19T19:39:37.336Z,82.30
2022-10-19T19:42:04.154Z,82.50
2022-10-19T19:44:31.143Z,82.80
2022-10-19T19:46:59.117Z,83.40
2022-10-19T19:49:26.228Z,83.10
2022-10-19T19:51:53.838Z,83.10
2022-10-19T19:54:21.846Z,83.40
2022-10-19T19:56:51.971Z,83.70
2022-10-19T19:59:18.866Z,83.70
2022-10-19T20:01:45.805Z,84.90
2022-10-19T20:04:12.487Z,84.00
2022-10-19T20:06:39.573Z,84.40
2022-10-19T20:09:06.842Z,84.40
2022-10-19T20:11:36.107Z,84.50
2022-10-19T20:14:04.953Z,85.10
2022-10-19T20:16:34.479Z,85.40
2022-10-19T20:19:05.735Z,85.40
2022-10-19T20:21:33.550Z,85.70
2022-10-19T20:24:00.205Z,85.70
2022-10-19T20:26:27.295Z,85.90
2022-10-19T20:28:53.990Z,86.10
2022-10-19T20:31:21.006Z,86.40
2022-10-19T20:33:47.834Z,86.50
2022-10-19T20:36:15.862Z,86.70
2022-10-19T20:39:00.357Z,87.40
2022-10-19T20:41:27.807Z,87.00
2022-10-19T20:43:55.334Z,87.20
2022-10-19T20:46:23.467Z,87.20
2022-10-19T20:48:50.758Z,87.40
2022-10-19T20:51:20.329Z,87.50
2022-10-19T20:53:49.801Z,88.10
2022-10-19T20:56:17.875Z,88.20
2022-10-19T20:58:45.289Z,88.00
2022-10-19T21:01:13.696Z,88.00
2022-10-19T21:03:40.427Z,88.40
2022-10-19T21:06:08.118Z,88.80
2022-10-19T21:08:35.589Z,88.60
2022-10-19T21:11:10.810Z,89.00
2022-10-19T21:13:37.360Z,89.00
2022-10-19T21:16:14.532Z,89.00
2022-10-19T21:18:41.446Z,89.30
2022-10-19T21:21:15.429Z,89.40
2022-10-19T21:23:42.848Z,89.60
2022-10-19T21:26:09.462Z,90.00
2022-10-19T21:28:36.077Z,89.90
2022-10-19T21:31:06.422Z,90.00
2022-10-19T21:33:33.217Z,90.00
2022-10-19T21:36:00.408Z,90.10
2022-10-19T21:38:27.029Z,90.20
2022-10-19T21:41:00.812Z,90.30
2022-10-19T21:43:27.737Z,90.40
2022-10-19T21:45:54.364Z,90.50
2022-10-19T21:48:21.305Z,90.50
2022-10-19T21:50:48.443Z,90.70
2022-10-19T21:53:19.359Z,90.70
2022-10-19T21:55:46.567Z,90.80
2022-10-19T21:58:13.161Z,90.90
2022-10-19T22:00:39.759Z,90.90
2022-10-19T22:03:06.500Z,90.90
2022-10-19T22:05:33.167Z,91.00
2022-10-19T22:07:59.782Z,91.00
2022-10-19T22:10:26.389Z,91.00
2022-10-19T22:12:52.955Z,91.20
2022-10-19T22:15:19.527Z,91.30
2022-10-19T22:17:46.126Z,91.40
2022-10-19T22:20:12.709Z,91.50
2022-10-19T22:22:39.346Z,91.50
2022-10-19T22:25:06.051Z,91.60
2022-10-19T22:27:33.586Z,91.60
2022-10-19T22:30:00.307Z,91.70
2022-10-19T22:32:26.883Z,91.80
2022-10-19T22:34:53.495Z,92.10
2022-10-19T22:37:20.107Z,91.80
2022-10-19T22:39:46.684Z,91.90
2022-10-19T22:42:13.287Z,91.90
2022-10-19T22:44:39.903Z,91.90
2022-10-19T22:47:06.477Z,91.90
2022-10-19T22:49:33.236Z,92.00
2022-10-19T22:51:59.846Z,92.00
2022-10-19T22:54:26.450Z,92.00
2022-10-19T22:56:53.437Z,92.10
2022-10-19T22:59:20.045Z,92.20
2022-10-19T23:01:46.686Z,92.30
2022-10-19T23:04:13.327Z,92.40
2022-10-19T23:06:40.724Z,92.40
2022-10-19T23:09:07.428Z,92.50
2022-10-19T23:11:34.012Z,92.60
2022-10-19T23:14:00.647Z,92.60
2022-10-19T23:18:54.743Z,92.60
2022-10-19T23:21:21.412Z,92.70
2022-10-19T23:23:48.165Z,92.80
2022-10-19T23:26:16.799Z,92.80
2022-10-19T23:28:44.316Z,92.80
2022-10-19T23:31:15.772Z,92.80
2022-10-19T23:33:42.888Z,92.90
2022-10-19T23:36:11.829Z,92.90
2022-10-19T23:38:38.663Z,92.90
2022-10-19T23:41:05.335Z,92.90
2022-10-19T23:43:32.465Z,92.90
2022-10-19T23:45:59.408Z,93.60
2022-10-19T23:48:26.312Z,93.10
2022-10-19T23:50:56.883Z,93.10
2022-10-19T23:53:23.456Z,93.10
2022-10-19T23:55:50.028Z,93.40
2022-10-19T23:58:16.709Z,93.20
